Terminal Aerodrome Forecast
Issued by NWS

Home | Current Version | Previous Version | Graphics & Text | Print | Product List | Glossary On
Versions: 1 2 3 4 5 6 7 8 9 10 11 12 13 14 15 16 17 18
000
FTUS43 KGRB 041100
TAFCWA
TAF
KCWA 041120Z 0412/0512 34005KT P6SM SCT250
      TEMPO 0412/0413 3SM BR
     FM041500 36008G14KT P6SM BKN250
     FM050000 04005KT P6SM BKN250
     FM050900 08006KT P6SM BKN100 OVC250=

USA.gov is the U.S. government's official web portal to all federal, state and local government web resources and services.